createdAt,value
2023-03-07T00:00:27.577Z,99590.67
2023-03-07T00:03:16.668Z,99591.48
2023-03-07T00:05:44.825Z,99590.10
2023-03-07T00:08:13.125Z,99590.84
2023-03-07T00:10:41.042Z,99590.05
2023-03-07T00:13:09.125Z,99591.35
2023-03-07T00:15:38.946Z,99589.30
2023-03-07T00:18:07.658Z,99585.31
2023-03-07T00:20:35.749Z,99584.66
2023-03-07T00:23:05.034Z,99583.33
2023-03-07T00:25:32.900Z,99581.10
2023-03-07T00:28:00.941Z,99582.39
2023-03-07T00:30:28.811Z,99583.43
2023-03-07T00:32:56.822Z,99579.95
2023-03-07T00:35:24.808Z,99578.32
2023-03-07T00:37:52.737Z,99573.40
2023-03-07T00:40:20.657Z,99573.33
2023-03-07T00:42:48.432Z,99571.11
2023-03-07T00:45:16.486Z,99567.79
2023-03-07T00:47:44.522Z,99563.93
2023-03-07T00:50:13.661Z,99557.23
2023-03-07T00:52:41.653Z,99553.03
2023-03-07T00:55:09.978Z,99549.19
2023-03-07T00:57:37.882Z,99544.85
2023-03-07T01:00:06.460Z,99543.67
2023-03-07T01:02:34.676Z,99539.02
2023-03-07T01:05:02.601Z,99538.48
2023-03-07T01:07:30.680Z,99531.20
2023-03-07T01:09:58.640Z,99528.80
2023-03-07T01:12:26.538Z,99526.95
2023-03-07T01:14:54.838Z,99525.96
2023-03-07T01:17:22.861Z,99522.07
2023-03-07T01:19:50.757Z,99519.09
2023-03-07T01:22:18.713Z,99521.89
2023-03-07T01:24:47.337Z,99515.56
2023-03-07T01:27:15.669Z,99507.41
2023-03-07T01:29:43.807Z,99510.61
2023-03-07T01:32:12.367Z,99506.83
2023-03-07T01:34:40.286Z,99502.13
2023-03-07T01:37:08.244Z,99500.64
2023-03-07T01:39:36.852Z,99503.81
2023-03-07T01:42:08.056Z,99495.73
2023-03-07T01:45:06.906Z,99496.79
2023-03-07T01:47:43.645Z,99489.10
2023-03-07T01:50:17.730Z,99487.34
2023-03-07T01:52:53.662Z,99485.81
2023-03-07T01:55:34.134Z,99481.20
2023-03-07T01:58:13.924Z,99481.21
2023-03-07T02:00:44.255Z,99477.05
2023-03-07T02:03:26.297Z,99476.89
2023-03-07T02:05:58.696Z,99477.38
2023-03-07T02:08:30.292Z,99476.64
2023-03-07T02:10:58.365Z,99473.30
2023-03-07T02:13:26.506Z,99471.19
2023-03-07T02:15:55.117Z,99471.23
2023-03-07T02:18:30.296Z,99461.41
2023-03-07T02:21:12.386Z,99458.94
2023-03-07T02:23:52.523Z,99455.55
2023-03-07T02:26:43.687Z,99450.66
2023-03-07T02:29:13.502Z,99449.38
2023-03-07T02:31:42.685Z,99448.10
2023-03-07T02:34:20.175Z,99446.21
2023-03-07T02:36:53.258Z,99441.66
2023-03-07T02:39:26.305Z,99435.33
2023-03-07T02:41:56.594Z,99429.06
2023-03-07T02:44:31.154Z,99426.81
2023-03-07T02:46:59.068Z,99418.52
2023-03-07T02:49:27.790Z,99411.66
2023-03-07T02:52:00.612Z,99397.14
2023-03-07T02:54:29.243Z,99398.20
2023-03-07T02:56:57.746Z,99398.92
2023-03-07T02:59:26.282Z,99397.67
2023-03-07T03:01:54.508Z,99393.40
2023-03-07T03:04:22.542Z,99393.06
2023-03-07T03:06:50.641Z,99385.80
2023-03-07T03:09:18.533Z,99386.32
2023-03-07T03:11:47.130Z,99382.80
2023-03-07T03:14:15.634Z,99380.52
2023-03-07T03:16:43.592Z,99374.46
2023-03-07T03:19:11.579Z,99365.58
2023-03-07T03:21:39.516Z,99366.36
2023-03-07T03:24:08.632Z,99366.09
2023-03-07T03:26:37.839Z,99362.80
2023-03-07T03:29:05.730Z,99356.48
2023-03-07T03:31:35.133Z,99355.20
2023-03-07T03:34:05.745Z,99350.71
2023-03-07T03:36:34.530Z,99350.69
2023-03-07T03:39:11.039Z,99349.87
2023-03-07T03:41:43.247Z,99348.39
2023-03-07T03:44:11.500Z,99343.98
2023-03-07T03:46:39.554Z,99344.96
2023-03-07T03:49:07.644Z,99347.05
2023-03-07T03:51:36.282Z,99341.84
2023-03-07T03:54:05.014Z,99343.88
2023-03-07T03:56:33.034Z,99340.00
2023-03-07T03:59:00.927Z,99337.27
2023-03-07T04:01:29.551Z,99336.42
2023-03-07T04:03:58.564Z,99328.20
2023-03-07T04:06:29.466Z,99320.87
2023-03-07T04:08:58.179Z,99314.48
2023-03-07T04:11:26.895Z,99311.33
2023-03-07T04:13:55.143Z,99298.04
2023-03-07T04:16:24.232Z,99299.09
2023-03-07T04:18:52.787Z,99297.67
2023-03-07T04:21:21.953Z,99287.34
2023-03-07T04:23:55.550Z,99288.47
2023-03-07T04:26:24.743Z,99279.27
2023-03-07T04:28:52.970Z,99279.70
2023-03-07T04:31:26.984Z,99277.84
2023-03-07T04:33:56.715Z,99274.77
2023-03-07T04:36:25.600Z,99277.59
2023-03-07T04:38:53.891Z,99273.94
2023-03-07T04:41:26.265Z,99276.45
2023-03-07T04:44:04.151Z,99271.70
2023-03-07T04:46:32.256Z,99262.98
2023-03-07T04:49:00.313Z,99258.46
2023-03-07T04:51:28.774Z,99254.27
2023-03-07T04:53:56.788Z,99249.22
2023-03-07T04:56:24.711Z,99240.87
2023-03-07T04:58:52.796Z,99237.98
2023-03-07T05:01:20.693Z,99236.27
2023-03-07T05:03:49.432Z,99233.48
2023-03-07T05:06:19.357Z,99226.77
2023-03-07T05:08:50.527Z,99225.40
2023-03-07T05:11:18.979Z,99218.59
2023-03-07T05:13:47.040Z,99211.64
2023-03-07T05:16:18.500Z,99208.64
2023-03-07T05:18:46.750Z,99210.27
2023-03-07T05:21:14.753Z,99210.90
2023-03-07T05:23:42.763Z,99210.33
2023-03-07T05:26:12.362Z,99202.29
2023-03-07T05:28:40.492Z,99204.36
2023-03-07T05:31:09.118Z,99203.09
2023-03-07T05:33:37.185Z,99204.05
2023-03-07T05:36:05.680Z,99199.38
2023-03-07T05:38:34.455Z,99195.52
2023-03-07T05:41:02.332Z,99192.66
2023-03-07T05:43:30.164Z,99188.88
2023-03-07T05:45:58.402Z,99184.20
2023-03-07T05:48:26.604Z,99181.11
2023-03-07T05:50:54.518Z,99170.64
2023-03-07T05:53:23.282Z,99168.26
2023-03-07T05:55:51.790Z,99164.54
2023-03-07T05:58:20.033Z,99158.86
2023-03-07T06:00:49.624Z,99154.54
2023-03-07T06:03:17.986Z,99157.36
2023-03-07T06:05:49.745Z,99150.08
2023-03-07T06:08:17.788Z,99141.73
2023-03-07T06:10:50.069Z,99144.27
2023-03-07T06:13:22.287Z,99139.96
2023-03-07T06:15:54.891Z,99137.46
2023-03-07T06:18:25.107Z,99132.77
2023-03-07T06:21:01.504Z,99127.47
2023-03-07T06:23:34.320Z,99125.59
2023-03-07T06:26:04.206Z,99122.58
2023-03-07T06:28:33.113Z,99116.28
2023-03-07T06:31:08.590Z,99115.77
2023-03-07T06:33:36.620Z,99120.29
2023-03-07T06:36:10.231Z,99117.73
2023-03-07T06:38:39.120Z,99116.83
2023-03-07T06:41:07.668Z,99112.92
2023-03-07T06:43:36.163Z,99112.37
2023-03-07T06:46:05.951Z,99105.07
2023-03-07T06:48:36.167Z,99097.85
2023-03-07T06:51:07.828Z,99095.85
2023-03-07T06:53:36.493Z,99093.61
2023-03-07T06:56:04.916Z,99088.05
2023-03-07T06:58:33.617Z,99085.99
2023-03-07T07:01:02.141Z,99075.77
2023-03-07T07:03:30.988Z,99074.94
2023-03-07T07:05:58.896Z,99070.36
2023-03-07T07:08:26.724Z,99069.85
2023-03-07T07:10:59.576Z,99067.80
2023-03-07T07:13:28.144Z,99060.84
2023-03-07T07:15:56.014Z,99057.08
2023-03-07T07:18:25.017Z,99058.23
2023-03-07T07:20:56.273Z,99051.84
2023-03-07T07:23:25.194Z,99049.33
2023-03-07T07:25:53.450Z,99048.33
2023-03-07T07:28:21.536Z,99046.41
2023-03-07T07:30:49.535Z,99040.85
2023-03-07T07:33:17.748Z,99040.20
2023-03-07T07:35:48.296Z,99039.23
2023-03-07T07:38:16.510Z,99038.80
2023-03-07T07:40:45.281Z,99033.80
2023-03-07T07:43:16.035Z,99032.15
2023-03-07T07:45:50.573Z,99029.33
2023-03-07T07:48:21.123Z,99025.10
2023-03-07T07:50:49.398Z,99019.98
2023-03-07T07:53:18.700Z,99022.83
2023-03-07T07:55:48.988Z,99012.75
2023-03-07T07:58:17.374Z,99006.75
2023-03-07T08:00:46.240Z,99008.02
2023-03-07T08:03:14.198Z,99002.70
2023-03-07T08:05:51.081Z,99000.11
2023-03-07T08:08:19.996Z,99000.40
2023-03-07T08:10:49.035Z,98990.13
2023-03-07T08:13:17.982Z,98990.55
2023-03-07T08:15:46.119Z,98987.45
2023-03-07T08:18:14.273Z,98985.54
2023-03-07T08:20:42.206Z,98979.13
2023-03-07T08:23:10.188Z,98973.13
2023-03-07T08:25:38.492Z,98970.98
2023-03-07T08:28:06.447Z,98967.85
2023-03-07T08:30:37.027Z,98962.70
2023-03-07T08:33:04.971Z,98959.11
2023-03-07T08:35:32.900Z,98954.64
2023-03-07T08:38:01.318Z,98952.98
2023-03-07T08:40:30.878Z,98952.39
2023-03-07T08:42:59.788Z,98956.10
2023-03-07T08:45:27.866Z,98954.17
2023-03-07T08:47:56.815Z,98955.59
2023-03-07T08:50:27.531Z,98948.84
2023-03-07T08:52:55.587Z,98950.52
2023-03-07T08:55:23.619Z,98949.27
2023-03-07T08:57:51.645Z,98951.92
2023-03-07T09:00:19.933Z,98947.56
2023-03-07T09:02:47.827Z,98942.83
2023-03-07T09:05:15.837Z,98939.67
2023-03-07T09:07:44.462Z,98943.55
2023-03-07T09:10:12.390Z,98944.52
2023-03-07T09:12:40.362Z,98943.98
2023-03-07T09:15:09.158Z,98941.15
2023-03-07T09:17:37.180Z,98939.22
2023-03-07T09:20:07.464Z,98942.48
2023-03-07T09:22:35.795Z,98936.08
2023-03-07T09:25:04.741Z,98935.67
2023-03-07T09:27:32.605Z,98939.02
2023-03-07T09:30:00.568Z,98944.30
2023-03-07T09:32:28.584Z,98938.30
2023-03-07T09:34:57.065Z,98938.10
2023-03-07T09:37:25.124Z,98939.66
2023-03-07T09:39:52.939Z,98939.52
2023-03-07T09:42:34.912Z,98939.85
2023-03-07T09:45:42.601Z,98939.70
2023-03-07T09:48:51.513Z,98938.68
2023-03-07T09:51:30.942Z,98934.06
2023-03-07T09:54:03.149Z,98933.61
2023-03-07T09:56:40.890Z,98930.53
2023-03-07T09:59:26.467Z,98933.45
2023-03-07T10:02:21.816Z,98937.84
2023-03-07T10:04:56.354Z,98934.75
2023-03-07T10:07:26.988Z,98933.52
2023-03-07T10:09:59.965Z,98932.66
2023-03-07T10:12:46.838Z,98932.33
2023-03-07T10:15:17.867Z,98927.27
2023-03-07T10:18:26.081Z,98925.88
2023-03-07T10:21:14.598Z,98924.61
2023-03-07T10:24:00.857Z,98920.23
2023-03-07T10:26:44.495Z,98918.12
2023-03-07T10:29:17.906Z,98914.83
2023-03-07T10:31:49.135Z,98909.34
2023-03-07T10:34:28.163Z,98904.20
2023-03-07T10:37:18.884Z,98902.02
2023-03-07T10:39:55.071Z,98893.67
2023-03-07T10:42:24.065Z,98893.44
2023-03-07T10:44:52.457Z,98888.96
2023-03-07T10:47:22.278Z,98886.09
2023-03-07T10:49:55.042Z,98882.91
2023-03-07T10:52:40.189Z,98883.99
2023-03-07T10:55:31.772Z,98876.75
2023-03-07T10:58:19.884Z,98876.00
2023-03-07T11:01:06.426Z,98868.30
2023-03-07T11:03:55.851Z,98865.02
2023-03-07T11:06:28.025Z,98863.72
2023-03-07T11:08:56.304Z,98862.42
2023-03-07T11:11:26.866Z,98859.27
2023-03-07T11:14:14.594Z,98856.08
2023-03-07T11:16:51.216Z,98851.40
2023-03-07T11:19:43.716Z,98850.58
2023-03-07T11:22:34.259Z,98845.48
2023-03-07T11:25:26.586Z,98841.21
2023-03-07T11:27:57.169Z,98840.20
2023-03-07T11:30:41.099Z,98844.64
2023-03-07T11:33:23.147Z,98843.64
2023-03-07T11:35:51.080Z,98833.81
2023-03-07T11:38:24.550Z,98831.48
2023-03-07T11:41:05.352Z,98832.58
2023-03-07T11:43:46.503Z,98833.04
2023-03-07T11:46:26.846Z,98830.63
2023-03-07T11:49:22.991Z,98828.27
2023-03-07T11:52:07.642Z,98826.63
2023-03-07T11:55:00.615Z,98819.87
2023-03-07T11:58:14.982Z,98819.25
2023-03-07T12:01:01.204Z,98815.33
2023-03-07T12:03:41.137Z,98811.20
2023-03-07T12:06:59.776Z,98810.98
2023-03-07T12:09:46.360Z,98806.02
2023-03-07T12:12:19.969Z,98805.48
2023-03-07T12:15:15.906Z,98797.59
2023-03-07T12:18:12.372Z,98790.48
2023-03-07T12:20:46.208Z,98796.67
2023-03-07T12:23:26.016Z,98790.48
2023-03-07T12:25:53.908Z,98788.25
2023-03-07T12:28:21.736Z,98782.69
2023-03-07T12:30:53.023Z,98777.91
2023-03-07T12:33:40.296Z,98778.27
2023-03-07T12:36:17.787Z,98777.27
2023-03-07T12:38:58.646Z,98774.42
2023-03-07T12:41:52.197Z,98770.14
2023-03-07T12:44:36.586Z,98768.41
2023-03-07T12:47:26.114Z,98770.55
2023-03-07T12:50:00.428Z,98769.60
2023-03-07T12:52:36.497Z,98769.89
2023-03-07T12:55:20.621Z,98763.73
2023-03-07T12:58:07.869Z,98759.48
2023-03-07T13:00:41.317Z,98760.50
2023-03-07T13:03:15.601Z,98758.77
2023-03-07T13:05:44.215Z,98756.84
2023-03-07T13:08:20.578Z,98758.71
2023-03-07T13:10:49.105Z,98757.38
2023-03-07T13:13:42.256Z,98753.03
2023-03-07T13:16:31.366Z,98756.49
2023-03-07T13:19:37.252Z,98752.74
2023-03-07T13:22:14.359Z,98750.19
2023-03-07T13:24:47.604Z,98744.80
2023-03-07T13:27:20.964Z,98743.52
2023-03-07T13:30:12.538Z,98741.42
2023-03-07T13:32:56.007Z,98737.25
2023-03-07T13:35:39.301Z,98742.02
2023-03-07T13:38:28.776Z,98735.77
2023-03-07T13:41:00.410Z,98732.59
2023-03-07T13:43:28.621Z,98725.75
2023-03-07T13:46:01.974Z,98724.73
2023-03-07T13:48:30.103Z,98721.56
2023-03-07T13:51:01.189Z,98717.75
2023-03-07T13:53:34.768Z,98713.65
2023-03-07T13:56:20.209Z,98715.29
2023-03-07T13:59:21.587Z,98708.65
2023-03-07T14:01:57.034Z,98705.35
2023-03-07T14:04:41.215Z,98702.50
2023-03-07T14:07:22.731Z,98697.69
2023-03-07T14:10:09.798Z,98701.08
2023-03-07T14:13:05.452Z,98691.78
2023-03-07T14:15:47.575Z,98691.40
2023-03-07T14:18:20.758Z,98683.13
2023-03-07T14:21:21.588Z,98678.00
2023-03-07T14:24:02.995Z,98679.73
2023-03-07T14:26:48.936Z,98675.56
2023-03-07T14:29:23.606Z,98674.69
2023-03-07T14:31:54.267Z,98669.02
2023-03-07T14:34:22.128Z,98663.59
2023-03-07T14:36:52.575Z,98663.92
2023-03-07T14:39:22.040Z,98659.02
2023-03-07T14:42:22.393Z,98656.64
2023-03-07T14:44:56.358Z,98649.63
2023-03-07T14:47:42.813Z,98644.35
2023-03-07T14:50:32.023Z,98642.71
2023-03-07T14:53:13.779Z,98641.61
2023-03-07T14:55:44.953Z,98641.38
2023-03-07T14:58:25.705Z,98637.41
2023-03-07T15:01:04.508Z,98628.88
2023-03-07T15:03:33.585Z,98633.46
2023-03-07T15:06:03.544Z,98624.89
2023-03-07T15:08:40.907Z,98621.27
2023-03-07T15:11:33.444Z,98617.70
2023-03-07T15:14:18.562Z,98611.98
2023-03-07T15:16:58.444Z,98611.55
2023-03-07T15:19:32.449Z,98606.03
2023-03-07T15:22:03.798Z,98609.06
2023-03-07T15:24:38.437Z,98604.16
2023-03-07T15:27:10.586Z,98605.84
2023-03-07T15:29:48.291Z,98606.38
2023-03-07T15:32:39.516Z,98603.19
2023-03-07T15:35:07.695Z,98599.54
2023-03-07T15:37:51.115Z,98597.70
2023-03-07T15:40:32.465Z,98592.02
2023-03-07T15:43:04.492Z,98592.84
2023-03-07T15:45:38.793Z,98592.05
2023-03-07T15:48:31.596Z,98593.17
2023-03-07T15:51:03.386Z,98588.15
2023-03-07T15:53:36.262Z,98580.75
2023-03-07T15:56:08.161Z,98583.83
2023-03-07T15:58:42.553Z,98581.70
2023-03-07T16:01:16.896Z,98577.38
2023-03-07T16:04:09.399Z,98578.90
2023-03-07T16:06:45.393Z,98574.30
2023-03-07T16:09:18.489Z,98579.80
2023-03-07T16:11:47.355Z,98572.84
2023-03-07T16:14:26.489Z,98572.17
2023-03-07T16:17:12.702Z,98567.12
2023-03-07T16:19:40.754Z,98571.58
2023-03-07T16:22:16.820Z,98575.70
2023-03-07T16:24:44.759Z,98572.11
2023-03-07T16:27:16.462Z,98577.01
2023-03-07T16:29:45.255Z,98577.14
2023-03-07T16:32:15.701Z,98576.90
2023-03-07T16:34:44.544Z,98574.92
2023-03-07T16:37:13.532Z,98576.80
2023-03-07T16:39:41.640Z,98579.24
2023-03-07T16:42:27.627Z,98579.78
2023-03-07T16:44:55.590Z,98583.95
2023-03-07T16:47:23.573Z,98588.89
2023-03-07T16:49:51.605Z,98591.27
2023-03-07T16:52:19.987Z,98597.50
2023-03-07T16:54:48.422Z,98609.73
2023-03-07T16:57:17.219Z,98646.14
2023-03-07T16:59:47.168Z,98696.77
2023-03-07T17:02:21.147Z,98695.80
2023-03-07T17:04:49.234Z,98697.73
2023-03-07T17:07:20.281Z,98699.63
2023-03-07T17:09:48.981Z,98701.55
2023-03-07T17:12:20.634Z,98704.39
2023-03-07T17:14:48.564Z,98709.59
2023-03-07T17:17:30.639Z,98713.64
2023-03-07T17:19:58.993Z,98711.73
2023-03-07T17:22:26.995Z,98710.14
2023-03-07T17:24:55.118Z,98717.04
2023-03-07T17:27:23.302Z,98721.35
2023-03-07T17:29:54.606Z,98723.43
2023-03-07T17:32:22.797Z,98730.59
2023-03-07T17:34:50.829Z,98735.34
2023-03-07T17:37:18.910Z,98740.21
2023-03-07T17:39:48.444Z,98743.09
2023-03-07T17:42:16.477Z,98748.66
2023-03-07T17:44:44.306Z,98749.23
2023-03-07T17:47:12.189Z,98744.70
2023-03-07T17:49:40.316Z,98750.91
2023-03-07T17:52:08.254Z,98751.41
2023-03-07T17:54:36.343Z,98746.14
2023-03-07T17:57:04.488Z,98752.45
2023-03-07T17:59:33.153Z,98761.51
2023-03-07T18:02:01.321Z,98761.98
2023-03-07T18:04:31.380Z,98759.75
2023-03-07T18:07:00.303Z,98762.59
2023-03-07T18:09:28.686Z,98758.34
2023-03-07T18:11:56.939Z,98754.30
2023-03-07T18:14:25.487Z,98755.33
2023-03-07T18:16:53.812Z,98742.67
2023-03-07T18:19:26.692Z,98742.55
2023-03-07T18:21:55.522Z,98762.13
2023-03-07T18:24:26.615Z,98757.56
2023-03-07T18:26:55.990Z,98770.78
2023-03-07T18:29:23.929Z,98777.34
2023-03-07T18:31:52.548Z,98772.88
2023-03-07T18:34:20.919Z,98776.33
2023-03-07T18:36:51.757Z,98771.75
2023-03-07T18:39:23.987Z,98768.36
2023-03-07T18:41:52.131Z,98762.36
2023-03-07T18:44:20.486Z,98757.38
2023-03-07T18:46:48.646Z,98745.23
2023-03-07T18:49:16.734Z,98752.56
2023-03-07T18:51:46.210Z,98766.27
2023-03-07T18:54:14.206Z,98784.80
2023-03-07T18:56:45.951Z,98803.42
2023-03-07T18:59:14.579Z,98805.84
2023-03-07T19:01:42.647Z,98806.48
2023-03-07T19:04:11.851Z,98804.08
2023-03-07T19:06:42.276Z,98804.44
2023-03-07T19:09:20.520Z,98807.05
2023-03-07T19:11:48.443Z,98799.35
2023-03-07T19:14:16.524Z,98800.61
2023-03-07T19:16:45.315Z,98800.05
2023-03-07T19:19:13.563Z,98799.90
2023-03-07T19:21:41.560Z,98813.18
2023-03-07T19:24:11.935Z,98815.14
2023-03-07T19:26:41.744Z,98815.11
2023-03-07T19:29:12.189Z,98821.13
2023-03-07T19:31:43.886Z,98825.19
2023-03-07T19:34:12.202Z,98822.91
2023-03-07T19:36:41.710Z,98812.04
2023-03-07T19:39:15.149Z,98812.73
2023-03-07T19:41:45.459Z,98808.41
2023-03-07T19:44:14.380Z,98816.64
2023-03-07T19:46:46.378Z,98814.31
2023-03-07T19:49:15.807Z,98817.14
2023-03-07T19:51:43.773Z,98812.54
2023-03-07T19:54:15.222Z,98812.17
2023-03-07T19:56:45.162Z,98804.57
2023-03-07T19:59:13.601Z,98810.27
2023-03-07T20:01:41.584Z,98807.66
2023-03-07T20:04:12.353Z,98814.66
2023-03-07T20:06:42.998Z,98818.80
2023-03-07T20:09:12.978Z,98815.55
2023-03-07T20:11:43.360Z,98818.83
2023-03-07T20:14:12.262Z,98824.86
2023-03-07T20:16:40.809Z,98821.49
2023-03-07T20:19:09.751Z,98820.18
2023-03-07T20:21:38.208Z,98822.88
2023-03-07T20:24:08.004Z,98825.86
2023-03-07T20:26:38.266Z,98831.03
2023-03-07T20:29:07.878Z,98830.63
2023-03-07T20:31:39.454Z,98831.36
2023-03-07T20:34:08.354Z,98829.85
2023-03-07T20:36:37.966Z,98831.02
2023-03-07T20:39:10.278Z,98831.13
2023-03-07T20:41:38.191Z,98834.02
2023-03-07T20:44:07.991Z,98841.77
2023-03-07T20:46:38.664Z,98846.31
2023-03-07T20:49:06.524Z,98848.50
2023-03-07T20:51:36.373Z,98846.77
2023-03-07T20:54:12.265Z,98846.20
2023-03-07T20:56:41.391Z,98846.81
2023-03-07T20:59:13.202Z,98848.50
2023-03-07T21:01:42.241Z,98850.13
2023-03-07T21:04:13.581Z,98847.14
2023-03-07T21:06:43.261Z,98841.41
2023-03-07T21:09:13.266Z,98850.65
2023-03-07T21:11:46.970Z,98861.89
2023-03-07T21:14:17.502Z,98868.51
2023-03-07T21:16:45.548Z,98874.47
2023-03-07T21:19:14.112Z,98876.32
2023-03-07T21:21:42.705Z,98877.82
2023-03-07T21:24:12.479Z,98878.05
2023-03-07T21:26:40.584Z,98877.86
2023-03-07T21:29:09.145Z,98880.25
2023-03-07T21:31:38.802Z,98881.95
2023-03-07T21:34:10.583Z,98886.41
2023-03-07T21:36:38.545Z,98893.54
2023-03-07T21:39:10.114Z,98896.97
2023-03-07T21:41:38.343Z,98904.04
2023-03-07T21:44:06.412Z,98901.30
2023-03-07T21:46:34.599Z,98897.64
2023-03-07T21:49:02.971Z,98897.03
2023-03-07T21:51:30.921Z,98896.77
2023-03-07T21:53:58.898Z,98901.52
2023-03-07T21:56:26.851Z,98908.05
2023-03-07T21:58:55.511Z,98903.36
2023-03-07T22:01:26.509Z,98897.90
2023-03-07T22:03:56.939Z,98904.58
2023-03-07T22:06:25.810Z,98906.68
2023-03-07T22:08:53.914Z,98906.02
2023-03-07T22:11:22.474Z,98901.89
2023-03-07T22:13:50.482Z,98904.72
2023-03-07T22:16:20.751Z,98904.66
2023-03-07T22:18:54.380Z,98906.36
2023-03-07T22:21:25.133Z,98903.66
2023-03-07T22:23:58.050Z,98907.98
2023-03-07T22:26:28.152Z,98921.71
2023-03-07T22:28:56.167Z,98915.20
2023-03-07T22:31:25.123Z,98920.30
2023-03-07T22:33:53.109Z,98917.95
2023-03-07T22:36:21.268Z,98927.87
2023-03-07T22:38:54.240Z,98928.96
2023-03-07T22:41:23.564Z,98924.48
2023-03-07T22:43:52.647Z,98921.64
2023-03-07T22:46:21.471Z,98917.50
2023-03-07T22:48:55.694Z,98931.21
2023-03-07T22:51:25.185Z,98932.85
2023-03-07T22:53:53.955Z,98930.92
2023-03-07T22:56:24.924Z,98930.73
2023-03-07T22:58:53.907Z,98934.41
2023-03-07T23:01:24.305Z,98934.02
2023-03-07T23:03:54.072Z,98936.78
2023-03-07T23:06:24.255Z,98942.23
2023-03-07T23:08:53.488Z,98940.04
2023-03-07T23:11:23.377Z,98941.05
2023-03-07T23:13:51.349Z,98938.73
2023-03-07T23:16:21.968Z,98940.77
2023-03-07T23:18:50.892Z,98942.98
2023-03-07T23:48:02.455Z,98954.21
2023-03-07T23:50:30.249Z,98963.27
2023-03-07T23:52:58.406Z,98970.08
2023-03-07T23:55:26.335Z,98967.48
2023-03-07T23:57:54.250Z,98974.67
